Time;durP1;ratioP1;P1;durP2;ratioP2;P2;SDS_P1;SDS_P2;PMS_P1;PMS_P2;Temp;Humidity;BMP_temperature;BMP_pressure;BME280_temperature;BME280_humidity;BME280_pressure;Samples;Min_cycle;Max_cycle;Signal;HPM_P1;HPM_P2
2023/06/25 00:01:47;;;;;;;13.15;7.72;;;;;;;;;;5062308;28;20064;-74
2023/06/25 00:04:13;;;;;;;10.65;5.72;;;;;;;;;;5048388;28;20076;-74
2023/06/25 00:06:39;;;;;;;7.15;5.13;;;;;;;;;;5052507;28;20033;-74
2023/06/25 00:09:05;;;;;;;13.25;8.20;;;;;;;;;;5051592;28;20028;-74
2023/06/25 00:11:31;;;;;;;14.10;6.82;;;;;;;;;;5060216;28;20032;-74
2023/06/25 00:13:57;;;;;;;9.10;6.05;;;;;;;;;;5057114;28;20487;-74
2023/06/25 00:16:25;;;;;;;11.15;7.60;;;;;;;;;;5071419;28;20082;-73
2023/06/25 00:18:51;;;;;;;11.68;8.00;;;;;;;;;;5059385;28;20033;-73
2023/06/25 00:21:17;;;;;;;9.65;5.97;;;;;;;;;;5060138;28;20055;-73
2023/06/25 00:23:43;;;;;;;10.20;7.55;;;;;;;;;;5047466;28;20032;-74
2023/06/25 00:26:09;;;;;;;9.18;6.47;;;;;;;;;;5051131;28;20025;-73
2023/06/25 00:28:36;;;;;;;10.27;6.95;;;;;;;;;;5063854;28;20479;-73
2023/06/25 00:31:02;;;;;;;11.52;7.57;;;;;;;;;;5050702;28;20017;-74
2023/06/25 00:33:28;;;;;;;12.52;8.63;;;;;;;;;;5049743;28;20064;-73
2023/06/25 00:35:55;;;;;;;11.70;7.15;;;;;;;;;;5050379;28;20402;-74
2023/06/25 00:38:21;;;;;;;8.80;6.78;;;;;;;;;;5050415;28;20036;-73
2023/06/25 00:40:50;;;;;;;10.32;8.23;;;;;;;;;;5041973;28;20045;-74
2023/06/25 00:43:16;;;;;;;10.13;7.53;;;;;;;;;;5051775;28;20029;-74
2023/06/25 00:45:42;;;;;;;8.88;4.95;;;;;;;;;;5050508;28;20029;-74
2023/06/25 00:48:09;;;;;;;10.52;5.97;;;;;;;;;;5049941;28;20110;-74
2023/06/25 00:50:35;;;;;;;9.48;7.18;;;;;;;;;;5065886;28;20513;-74
2023/06/25 00:53:02;;;;;;;11.65;8.20;;;;;;;;;;5061214;28;20017;-74
2023/06/25 00:55:28;;;;;;;11.73;7.93;;;;;;;;;;5050277;28;20033;-75
2023/06/25 00:57:56;;;;;;;10.77;7.28;;;;;;;;;;5042599;28;20112;-74
2023/06/25 01:00:24;;;;;;;11.85;7.40;;;;;;;;;;5049866;28;20040;-73
2023/06/25 01:03:03;;;;;;;12.43;8.15;;;;;;;;;;5059375;28;20057;-73
2023/06/25 01:05:49;;;;;;;12.05;8.13;;;;;;;;;;5046658;28;20029;-74
2023/06/25 01:08:15;;;;;;;9.20;6.88;;;;;;;;;;5036100;28;20140;-73
2023/06/25 01:10:41;;;;;;;11.25;6.60;;;;;;;;;;5048639;28;20029;-73
2023/06/25 01:13:07;;;;;;;12.63;8.98;;;;;;;;;;5049459;28;20804;-73
2023/06/25 01:15:33;;;;;;;12.88;9.07;;;;;;;;;;5052917;28;20025;-73
2023/06/25 01:18:00;;;;;;;12.35;8.38;;;;;;;;;;5050445;28;20053;-73
2023/06/25 01:20:29;;;;;;;8.95;6.13;;;;;;;;;;5038128;28;20060;-74
2023/06/25 01:22:58;;;;;;;11.25;7.93;;;;;;;;;;5057138;28;20029;-72
2023/06/25 01:25:25;;;;;;;11.43;8.63;;;;;;;;;;5061899;28;20389;-74
2023/06/25 01:27:51;;;;;;;12.50;8.65;;;;;;;;;;5052561;28;20024;-73
2023/06/25 01:30:18;;;;;;;9.18;5.43;;;;;;;;;;5045204;28;20039;-74
2023/06/25 01:32:44;;;;;;;10.50;8.80;;;;;;;;;;5050234;28;20045;-73
2023/06/25 01:35:13;;;;;;;10.07;7.40;;;;;;;;;;5051124;28;20032;-73
2023/06/25 01:37:39;;;;;;;12.20;8.93;;;;;;;;;;5045842;28;20033;-74
2023/06/25 01:40:07;;;;;;;13.90;10.43;;;;;;;;;;5055340;28;20044;-75
2023/06/25 01:42:34;;;;;;;11.07;8.32;;;;;;;;;;5037906;28;20048;-73
2023/06/25 01:45:01;;;;;;;13.00;9.20;;;;;;;;;;5042222;28;20036;-73
2023/06/25 01:47:27;;;;;;;15.30;10.18;;;;;;;;;;5066865;28;20035;-73
2023/06/25 01:49:53;;;;;;;12.52;9.32;;;;;;;;;;5068392;28;20409;-73
2023/06/25 01:52:19;;;;;;;14.77;9.52;;;;;;;;;;5040771;28;20611;-74
2023/06/25 01:54:46;;;;;;;10.73;8.55;;;;;;;;;;5043854;28;20110;-73
2023/06/25 01:57:13;;;;;;;10.02;7.45;;;;;;;;;;5060017;28;20406;-74
2023/06/25 01:59:39;;;;;;;12.88;10.25;;;;;;;;;;5059203;28;20033;-73
2023/06/25 02:02:05;;;;;;;13.48;10.07;;;;;;;;;;5049108;28;20406;-74
2023/06/25 02:04:32;;;;;;;12.63;10.05;;;;;;;;;;5056488;28;20028;-74
2023/06/25 02:06:58;;;;;;;13.80;11.05;;;;;;;;;;5061726;28;20568;-74
2023/06/25 02:09:24;;;;;;;17.52;11.45;;;;;;;;;;5057305;28;20025;-73
2023/06/25 02:11:50;;;;;;;13.77;10.90;;;;;;;;;;5045393;28;20091;-72
2023/06/25 02:14:16;;;;;;;13.45;9.93;;;;;;;;;;5049431;28;20078;-74
2023/06/25 02:16:42;;;;;;;17.98;10.38;;;;;;;;;;5042210;28;20033;-72
2023/06/25 02:19:08;;;;;;;11.15;8.10;;;;;;;;;;5038562;28;20036;-73
2023/06/25 02:21:34;;;;;;;13.40;9.48;;;;;;;;;;5056193;28;20040;-72
2023/06/25 02:24:00;;;;;;;14.70;10.68;;;;;;;;;;5055033;28;20031;-73
2023/06/25 02:26:26;;;;;;;15.55;10.63;;;;;;;;;;5051496;28;20025;-73
2023/06/25 02:28:52;;;;;;;13.23;10.15;;;;;;;;;;5050626;28;20037;-73
2023/06/25 02:31:18;;;;;;;13.93;10.68;;;;;;;;;;5059519;28;20043;-74
2023/06/25 02:33:44;;;;;;;13.85;10.13;;;;;;;;;;5033928;28;20045;-75
2023/06/25 02:36:10;;;;;;;14.20;10.20;;;;;;;;;;5035384;28;20037;-74
2023/06/25 02:38:36;;;;;;;14.45;9.77;;;;;;;;;;5013958;28;20109;-73
2023/06/25 02:41:02;;;;;;;11.40;9.57;;;;;;;;;;5043290;28;20045;-74
2023/06/25 02:43:29;;;;;;;13.48;10.52;;;;;;;;;;5033936;28;20037;-74
2023/06/25 02:45:55;;;;;;;10.73;8.52;;;;;;;;;;5036988;28;20062;-74
2023/06/25 02:48:21;;;;;;;14.70;10.30;;;;;;;;;;5047681;28;20025;-73
2023/06/25 02:50:47;;;;;;;13.73;10.55;;;;;;;;;;5027681;28;20574;-74
2023/06/25 02:53:13;;;;;;;13.73;8.65;;;;;;;;;;5028640;28;20982;-75
2023/06/25 02:55:39;;;;;;;14.15;10.35;;;;;;;;;;5041981;28;20641;-73
2023/06/25 02:58:05;;;;;;;15.68;10.40;;;;;;;;;;5044547;28;20116;-74
2023/06/25 03:00:31;;;;;;;13.52;10.15;;;;;;;;;;5032305;28;20041;-74
2023/06/25 03:02:57;;;;;;;13.30;9.45;;;;;;;;;;5032301;28;20060;-74
2023/06/25 03:05:23;;;;;;;13.25;8.68;;;;;;;;;;5044083;28;20108;-75
2023/06/25 03:07:53;;;;;;;12.82;10.05;;;;;;;;;;5015616;28;20540;-75
2023/06/25 03:10:19;;;;;;;14.05;10.60;;;;;;;;;;5047153;28;20033;-74
2023/06/25 03:12:45;;;;;;;15.55;10.70;;;;;;;;;;5031336;28;20030;-75
2023/06/25 03:15:11;;;;;;;13.88;11.27;;;;;;;;;;5042152;28;20040;-74
2023/06/25 03:17:37;;;;;;;13.35;10.73;;;;;;;;;;5008891;28;20029;-74
2023/06/25 03:20:03;;;;;;;13.15;10.93;;;;;;;;;;5015166;28;20056;-74
2023/06/25 03:22:29;;;;;;;14.02;10.13;;;;;;;;;;5021636;28;20025;-74
2023/06/25 03:24:55;;;;;;;16.08;11.90;;;;;;;;;;5023938;28;20439;-74
2023/06/25 03:27:21;;;;;;;15.13;11.18;;;;;;;;;;5008746;28;20155;-74
2023/06/25 03:29:47;;;;;;;15.55;10.80;;;;;;;;;;5025877;28;20105;-73
2023/06/25 03:32:13;;;;;;;15.32;11.25;;;;;;;;;;5026063;28;20059;-74
2023/06/25 03:34:39;;;;;;;11.85;8.80;;;;;;;;;;5055200;28;20127;-73
2023/06/25 03:37:05;;;;;;;15.98;12.10;;;;;;;;;;5062458;28;20108;-74
2023/06/25 03:39:31;;;;;;;14.93;10.77;;;;;;;;;;5058240;28;20028;-74
2023/06/25 03:41:58;;;;;;;13.75;11.00;;;;;;;;;;5070779;28;20028;-74
2023/06/25 03:44:24;;;;;;;14.05;11.18;;;;;;;;;;5057739;28;20032;-74
2023/06/25 03:46:50;;;;;;;15.30;11.77;;;;;;;;;;5071772;28;20537;-74
2023/06/25 03:49:16;;;;;;;13.82;11.07;;;;;;;;;;5056367;28;20532;-74
2023/06/25 03:51:42;;;;;;;16.92;12.13;;;;;;;;;;5052169;28;20037;-74
2023/06/25 03:54:08;;;;;;;12.18;10.00;;;;;;;;;;5051023;28;20028;-73
2023/06/25 03:56:34;;;;;;;13.40;11.07;;;;;;;;;;5052094;28;20021;-74
2023/06/25 03:59:00;;;;;;;12.45;10.10;;;;;;;;;;5055414;28;20036;-74
2023/06/25 04:01:26;;;;;;;14.07;10.48;;;;;;;;;;5039127;28;20041;-74
2023/06/25 04:03:52;;;;;;;13.45;9.35;;;;;;;;;;5053616;28;20100;-73
2023/06/25 04:06:18;;;;;;;12.80;9.50;;;;;;;;;;5064350;28;20043;-73
2023/06/25 04:08:44;;;;;;;14.38;11.55;;;;;;;;;;5055815;28;20053;-74
2023/06/25 04:11:10;;;;;;;13.13;10.18;;;;;;;;;;5051986;28;20462;-74
2023/06/25 04:13:36;;;;;;;16.42;12.40;;;;;;;;;;5056876;28;20056;-74
2023/06/25 04:16:02;;;;;;;16.52;11.48;;;;;;;;;;5055083;28;20049;-74
2023/06/25 04:18:28;;;;;;;14.20;10.65;;;;;;;;;;5043538;28;20558;-74
2023/06/25 04:20:55;;;;;;;12.45;9.30;;;;;;;;;;5063834;28;20020;-74
2023/06/25 04:23:21;;;;;;;15.05;11.43;;;;;;;;;;5057321;28;20056;-73
2023/06/25 04:25:48;;;;;;;13.27;9.90;;;;;;;;;;5066227;28;20025;-73
2023/06/25 04:28:15;;;;;;;14.07;9.27;;;;;;;;;;5061298;28;20821;-74
2023/06/25 04:30:41;;;;;;;16.20;10.93;;;;;;;;;;5051831;28;20036;-74
2023/06/25 04:33:07;;;;;;;15.73;12.10;;;;;;;;;;5053648;28;20051;-73
2023/06/25 04:35:33;;;;;;;12.60;10.00;;;;;;;;;;5044631;28;20411;-75
2023/06/25 04:37:59;;;;;;;13.55;10.05;;;;;;;;;;5068898;28;20052;-72
2023/06/25 04:40:25;;;;;;;14.18;9.98;;;;;;;;;;5047777;28;20091;-74
2023/06/25 04:42:51;;;;;;;13.35;10.88;;;;;;;;;;5052574;28;20070;-74
2023/06/25 04:45:17;;;;;;;13.38;10.32;;;;;;;;;;5044004;28;20510;-74
2023/06/25 04:47:43;;;;;;;12.48;9.98;;;;;;;;;;5043614;28;20032;-74
2023/06/25 04:50:10;;;;;;;13.55;9.65;;;;;;;;;;5055996;28;20029;-74
2023/06/25 04:52:36;;;;;;;11.68;8.88;;;;;;;;;;5058601;28;20446;-74
2023/06/25 04:55:02;;;;;;;11.32;8.57;;;;;;;;;;5058976;28;20056;-74
2023/06/25 04:57:28;;;;;;;11.00;8.05;;;;;;;;;;5065204;28;20052;-74
2023/06/25 04:59:55;;;;;;;11.90;8.52;;;;;;;;;;5049998;28;20144;-73
2023/06/25 05:02:21;;;;;;;13.57;10.15;;;;;;;;;;5050549;28;20056;-75
2023/06/25 05:04:47;;;;;;;16.40;10.48;;;;;;;;;;5061575;28;20093;-73
2023/06/25 05:07:13;;;;;;;13.88;9.68;;;;;;;;;;5067015;28;20029;-74
2023/06/25 05:09:39;;;;;;;13.13;9.35;;;;;;;;;;5054503;28;20108;-73
2023/06/25 05:12:05;;;;;;;11.55;9.15;;;;;;;;;;5060695;28;20028;-72
2023/06/25 05:14:31;;;;;;;12.10;9.23;;;;;;;;;;5044568;28;20028;-73
2023/06/25 05:16:57;;;;;;;13.23;10.65;;;;;;;;;;5049187;28;20475;-72
2023/06/25 05:19:23;;;;;;;10.95;7.75;;;;;;;;;;5056711;28;20055;-74
2023/06/25 05:21:49;;;;;;;14.85;10.48;;;;;;;;;;5070331;28;20490;-74
2023/06/25 05:24:15;;;;;;;13.70;10.70;;;;;;;;;;5055000;28;20056;-74
2023/06/25 05:26:41;;;;;;;12.38;10.00;;;;;;;;;;5052103;28;20025;-73
2023/06/25 05:29:07;;;;;;;12.07;9.05;;;;;;;;;;5038731;28;20420;-73
2023/06/25 05:31:33;;;;;;;11.00;8.10;;;;;;;;;;5057409;28;20872;-74
2023/06/25 05:33:59;;;;;;;9.35;6.68;;;;;;;;;;5053424;28;20045;-74
2023/06/25 05:36:25;;;;;;;9.05;5.72;;;;;;;;;;5050829;28;20544;-73
2023/06/25 05:38:51;;;;;;;9.35;6.70;;;;;;;;;;5030976;28;20025;-73
2023/06/25 05:41:17;;;;;;;12.68;9.52;;;;;;;;;;5049514;28;20513;-74
2023/06/25 05:43:43;;;;;;;14.13;8.57;;;;;;;;;;5052629;28;20509;-74
2023/06/25 05:46:11;;;;;;;12.95;7.97;;;;;;;;;;5058287;28;20048;-72
2023/06/25 05:48:38;;;;;;;12.57;9.18;;;;;;;;;;5063386;28;20471;-75
2023/06/25 05:51:04;;;;;;;10.98;6.32;;;;;;;;;;5069408;28;20024;-73
2023/06/25 05:53:37;;;;;;;11.23;5.28;;;;;;;;;;5066892;28;20017;-73
2023/06/25 05:56:04;;;;;;;12.20;9.30;;;;;;;;;;5049333;28;20021;-73
2023/06/25 05:58:30;;;;;;;9.35;7.25;;;;;;;;;;5049598;28;20051;-74
2023/06/25 06:00:56;;;;;;;11.18;7.18;;;;;;;;;;5045226;28;20085;-73
2023/06/25 06:03:22;;;;;;;11.65;7.32;;;;;;;;;;5045156;28;20028;-73
2023/06/25 06:05:48;;;;;;;14.57;10.32;;;;;;;;;;5019285;28;20036;-73
2023/06/25 06:08:14;;;;;;;13.68;9.55;;;;;;;;;;5047167;28;20039;-73
2023/06/25 06:10:41;;;;;;;8.85;6.32;;;;;;;;;;5038454;28;20033;-74
2023/06/25 06:13:07;;;;;;;13.85;9.75;;;;;;;;;;5048039;28;20029;-74
2023/06/25 06:15:33;;;;;;;12.88;9.38;;;;;;;;;;5037661;28;20055;-73
2023/06/25 06:17:59;;;;;;;11.15;8.15;;;;;;;;;;5048507;28;20021;-73
2023/06/25 06:20:25;;;;;;;11.20;9.07;;;;;;;;;;5057941;28;20586;-73
2023/06/25 06:22:51;;;;;;;10.27;6.82;;;;;;;;;;5066205;28;20110;-74
2023/06/25 06:25:17;;;;;;;10.70;6.18;;;;;;;;;;5048832;28;20028;-73
2023/06/25 06:27:43;;;;;;;8.52;5.55;;;;;;;;;;5056023;28;20028;-74
2023/06/25 06:30:09;;;;;;;10.23;6.85;;;;;;;;;;5067466;28;20043;-72
2023/06/25 06:32:35;;;;;;;14.45;9.68;;;;;;;;;;5045405;28;20124;-73
2023/06/25 06:35:01;;;;;;;14.70;10.07;;;;;;;;;;5049279;28;20108;-73
2023/06/25 06:37:27;;;;;;;11.18;7.50;;;;;;;;;;5055371;28;20029;-73
2023/06/25 06:39:53;;;;;;;14.60;10.00;;;;;;;;;;5049144;28;20035;-74
2023/06/25 06:42:19;;;;;;;9.18;4.88;;;;;;;;;;5052554;28;20060;-73
2023/06/25 06:44:45;;;;;;;14.35;11.10;;;;;;;;;;5047089;28;20048;-74
2023/06/25 06:47:12;;;;;;;8.75;5.72;;;;;;;;;;5052739;28;20063;-71
2023/06/25 06:49:38;;;;;;;12.93;9.13;;;;;;;;;;5057647;28;20025;-73
2023/06/25 06:52:04;;;;;;;16.75;8.63;;;;;;;;;;5047224;28;20033;-74
2023/06/25 06:54:30;;;;;;;12.55;9.30;;;;;;;;;;5054779;28;20071;-73
2023/06/25 06:56:56;;;;;;;11.25;8.48;;;;;;;;;;5056130;28;20049;-72
2023/06/25 06:59:22;;;;;;;13.98;10.43;;;;;;;;;;5064305;28;20070;-74
2023/06/25 07:01:49;;;;;;;10.10;6.82;;;;;;;;;;5053454;28;20045;-74
2023/06/25 07:04:15;;;;;;;11.18;7.43;;;;;;;;;;5048609;28;20472;-76
2023/06/25 07:06:41;;;;;;;10.85;8.05;;;;;;;;;;5048211;28;20068;-73
2023/06/25 07:09:07;;;;;;;9.43;6.72;;;;;;;;;;5057389;28;20027;-72
2023/06/25 07:11:33;;;;;;;9.52;5.88;;;;;;;;;;5051716;28;20029;-71
2023/06/25 07:13:59;;;;;;;8.95;5.90;;;;;;;;;;5046565;28;20044;-72
2023/06/25 07:16:26;;;;;;;11.27;5.88;;;;;;;;;;5051357;28;20391;-73
2023/06/25 07:18:52;;;;;;;10.00;6.38;;;;;;;;;;5054034;28;20025;-72
2023/06/25 07:21:18;;;;;;;7.70;5.15;;;;;;;;;;5043889;28;20052;-69
2023/06/25 07:23:44;;;;;;;8.85;6.05;;;;;;;;;;5063906;28;20032;-72
2023/06/25 07:26:10;;;;;;;9.57;5.90;;;;;;;;;;5033724;28;20767;-73
2023/06/25 07:28:36;;;;;;;7.82;5.43;;;;;;;;;;5065596;28;20131;-74
2023/06/25 07:31:02;;;;;;;8.93;6.22;;;;;;;;;;5061597;28;20570;-73
2023/06/25 07:33:28;;;;;;;9.13;6.22;;;;;;;;;;5058743;28;20051;-72
2023/06/25 07:35:54;;;;;;;10.75;8.15;;;;;;;;;;5037931;28;20100;-72
2023/06/25 07:38:20;;;;;;;10.35;6.78;;;;;;;;;;5065363;28;20463;-73
2023/06/25 07:40:46;;;;;;;11.18;8.50;;;;;;;;;;5043391;28;20473;-73
2023/06/25 07:43:12;;;;;;;10.27;7.80;;;;;;;;;;5055022;28;20115;-73
2023/06/25 07:45:38;;;;;;;14.55;11.35;;;;;;;;;;5064218;28;20029;-72
2023/06/25 07:48:04;;;;;;;15.30;12.05;;;;;;;;;;5053335;28;20060;-72
2023/06/25 07:50:30;;;;;;;11.20;8.60;;;;;;;;;;5054112;28;20099;-73
2023/06/25 07:52:56;;;;;;;11.05;7.10;;;;;;;;;;5048490;28;20030;-72
2023/06/25 07:55:22;;;;;;;8.23;5.35;;;;;;;;;;5030044;28;20252;-73
2023/06/25 07:57:48;;;;;;;10.90;7.15;;;;;;;;;;5054143;28;20056;-73
2023/06/25 08:00:15;;;;;;;9.50;5.80;;;;;;;;;;5065114;28;20061;-72
2023/06/25 08:02:41;;;;;;;12.13;8.10;;;;;;;;;;5049851;28;20116;-72
2023/06/25 08:05:07;;;;;;;10.50;8.00;;;;;;;;;;5040025;28;20076;-72
2023/06/25 08:07:33;;;;;;;11.75;8.07;;;;;;;;;;5058586;28;20021;-73
2023/06/25 08:09:59;;;;;;;11.30;8.15;;;;;;;;;;5033646;28;20033;-75
2023/06/25 08:12:25;;;;;;;8.05;5.68;;;;;;;;;;5051414;28;20033;-72
2023/06/25 08:14:51;;;;;;;9.10;6.72;;;;;;;;;;5050772;28;20040;-72
2023/06/25 08:17:17;;;;;;;8.82;6.80;;;;;;;;;;5060381;28;20511;-72
2023/06/25 08:19:43;;;;;;;7.00;4.97;;;;;;;;;;5051422;28;20083;-72
2023/06/25 08:22:09;;;;;;;12.20;8.15;;;;;;;;;;5067733;28;20029;-73
2023/06/25 08:24:35;;;;;;;10.70;7.57;;;;;;;;;;5071267;28;20033;-73
2023/06/25 08:27:01;;;;;;;12.52;10.25;;;;;;;;;;5050937;28;20487;-72
2023/06/25 08:29:27;;;;;;;10.65;8.27;;;;;;;;;;5064149;28;20532;-72
2023/06/25 08:31:53;;;;;;;8.30;6.40;;;;;;;;;;5061755;28;20025;-74
2023/06/25 08:34:19;;;;;;;9.88;7.47;;;;;;;;;;5052550;28;20131;-73
2023/06/25 08:36:45;;;;;;;7.97;5.45;;;;;;;;;;5050802;28;20432;-73
2023/06/25 08:39:11;;;;;;;8.38;5.20;;;;;;;;;;5055333;28;20036;-72
2023/06/25 08:41:37;;;;;;;8.23;5.47;;;;;;;;;;5055594;28;20467;-73
2023/06/25 08:44:03;;;;;;;7.38;4.78;;;;;;;;;;5065952;28;20047;-73
2023/06/25 08:46:33;;;;;;;11.80;7.20;;;;;;;;;;5051827;28;20132;-72
2023/06/25 08:49:00;;;;;;;11.68;7.55;;;;;;;;;;5057571;28;20036;-71
2023/06/25 08:51:26;;;;;;;7.15;4.75;;;;;;;;;;5050512;28;20360;-73
2023/06/25 08:53:58;;;;;;;7.72;5.88;;;;;;;;;;5056353;28;20736;-73
2023/06/25 08:56:24;;;;;;;6.30;4.22;;;;;;;;;;5051502;28;20060;-73
2023/06/25 08:58:50;;;;;;;8.52;6.10;;;;;;;;;;5048857;28;20056;-73
2023/06/25 09:01:18;;;;;;;8.52;5.68;;;29.10;64.30;;;;;;5038844;28;20067;-75
2023/06/25 09:03:43;;;;;;;12.77;7.95;;;29.40;65.20;;;;;;5051013;28;20056;-76
2023/06/25 09:06:14;;;;;;;11.52;7.70;;;29.50;64.10;;;;;;5057882;28;20029;-73
2023/06/25 09:08:41;;;;;;;10.10;6.63;;;29.60;63.00;;;;;;5036342;28;20051;-76
2023/06/25 09:11:07;;;;;;;9.25;4.85;;;29.60;63.50;;;;;;5047468;28;20036;-73
2023/06/25 09:13:32;;;;;;;7.65;4.10;;;29.60;65.60;;;;;;5063197;28;20021;-75
2023/06/25 09:16:07;;;;;;;9.82;7.53;;;29.60;66.30;;;;;;5068533;28;20091;-73
2023/06/25 09:18:32;;;;;;;11.63;6.40;;;29.70;64.10;;;;;;5052211;28;20025;-77
2023/06/25 09:21:06;;;;;;;8.68;4.70;;;29.70;62.70;;;;;;5061765;28;20047;-75
2023/06/25 09:23:32;;;;;;;7.20;4.05;;;29.70;63.20;;;;;;5051194;28;20636;-75
2023/06/25 09:26:03;;;;;;;7.20;4.90;;;29.80;64.80;;;;;;5061184;28;20025;-73
2023/06/25 09:28:29;;;;;;;8.75;6.00;;;29.90;64.60;;;;;;5046483;28;20034;-75
2023/06/25 09:30:56;;;;;;;8.15;4.78;;;30.00;63.80;;;;;;5064740;28;20103;-73
2023/06/25 09:33:30;;;;;;;8.55;4.75;;;30.20;65.80;;;;;;5046935;28;20060;-73
2023/06/25 09:36:03;;;;;;;10.95;7.65;;;30.30;66.20;;;;;;5062194;28;20033;-73
2023/06/25 09:38:31;;;;;;;11.25;7.45;;;30.40;62.60;;;;;;5056441;28;20078;-73
2023/06/25 09:41:00;;;;;;;9.05;6.10;;;30.50;63.70;;;;;;5050811;28;20756;-71
2023/06/25 09:43:27;;;;;;;9.70;4.68;;;30.70;63.70;;;;;;5050218;28;20544;-74
2023/06/25 09:46:12;;;;;;;8.55;5.57;;;30.90;65.00;;;;;;5058232;28;20024;-80
2023/06/25 09:48:45;;;;;;;10.00;6.85;;;31.00;63.90;;;;;;5048711;28;20047;-74
2023/06/25 09:51:13;;;;;;;9.70;5.32;;;31.30;62.00;;;;;;5033273;28;20032;-76
2023/06/25 09:53:43;;;;;;;8.43;6.47;;;31.40;61.40;;;;;;5049583;28;20035;-74
2023/06/25 09:56:08;;;;;;;;;;;31.60;60.30;;;;;;5036068;28;20025;-74
2023/06/25 09:58:35;;;;;;;7.35;4.60;;;31.60;59.00;;;;;;5064270;28;20340;-75
2023/06/25 10:01:01;;;;;;;12.32;9.75;;;31.50;59.80;;;;;;5062232;28;20035;-74
2023/06/25 10:03:27;;;;;;;10.63;7.68;;;31.60;58.50;;;;;;5034508;28;20037;-74
2023/06/25 10:05:53;;;;;;;6.40;3.97;;;31.80;59.50;;;;;;5055622;28;20028;-75
2023/06/25 10:08:19;;;;;;;8.65;5.28;;;32.00;62.80;;;;;;5057442;28;20471;-75
2023/06/25 10:10:58;;;;;;;7.43;4.88;;;32.20;60.80;;;;;;5057954;28;20017;-74
2023/06/25 10:13:24;;;;;;;9.48;4.85;;;32.40;60.20;;;;;;5050668;28;20067;-73
2023/06/25 10:16:01;;;;;;;8.02;5.70;;;32.40;59.10;;;;;;5054994;28;20029;-73
2023/06/25 10:18:30;;;;;;;7.57;5.50;;;32.60;59.10;;;;;;5047133;28;20510;-75
2023/06/25 10:20:57;;;;;;;10.05;6.93;;;32.50;57.90;;;;;;5046795;28;20066;-74
2023/06/25 10:23:23;;;;;;;8.32;5.47;;;32.50;57.50;;;;;;5049212;28;20033;-71
2023/06/25 10:25:58;;;;;;;9.02;4.88;;;32.40;58.40;;;;;;5056439;28;20017;-72
2023/06/25 10:28:31;;;;;;;9.38;6.80;;;32.40;57.90;;;;;;5055659;28;20028;-73
2023/06/25 10:31:01;;;;;;;6.22;4.45;;;32.50;57.60;;;;;;5061395;28;20031;-78
2023/06/25 10:33:31;;;;;;;7.43;4.97;;;32.60;59.70;;;;;;5049866;28;20914;-75
2023/06/25 10:35:58;;;;;;;10.63;5.63;;;32.80;57.90;;;;;;5058986;28;20025;-79
2023/06/25 10:38:26;;;;;;;6.05;4.00;;;33.00;58.30;;;;;;5051629;28;20364;-78
2023/06/25 10:40:52;;;;;;;6.97;3.85;;;33.00;57.40;;;;;;5057726;28;20044;-75
2023/06/25 10:43:21;;;;;;;6.38;4.47;;;33.20;62.10;;;;;;5035803;28;20544;-75
2023/06/25 10:45:51;;;;;;;6.70;4.65;;;33.20;59.70;;;;;;5050381;28;20021;-76
2023/06/25 10:48:21;;;;;;;8.70;5.03;;;33.20;59.10;;;;;;5052867;28;20021;-75
2023/06/25 10:50:54;;;;;;;7.20;5.03;;;33.20;54.70;;;;;;5058385;28;20029;-77
2023/06/25 10:53:24;;;;;;;6.18;4.20;;;33.30;58.40;;;;;;5062180;28;20021;-77
2023/06/25 10:55:53;;;;;;;7.00;5.10;;;33.40;55.40;;;;;;5052140;28;20041;-76
2023/06/25 10:58:22;;;;;;;8.30;5.00;;;33.20;55.00;;;;;;5041896;28;20028;-78
2023/06/25 11:00:58;;;;;;;7.38;4.88;;;33.30;55.30;;;;;;5053475;28;20083;-77
2023/06/25 11:03:24;;;;;;;6.38;4.20;;;33.50;54.70;;;;;;5046724;28;20124;-76
2023/06/25 11:05:51;;;;;;;8.57;5.40;;;33.70;55.00;;;;;;5054840;28;20017;-78
2023/06/25 11:08:16;;;;;;;10.18;4.93;;;33.70;52.00;;;;;;5055430;28;20486;-76
2023/06/25 11:10:43;;;;;;;7.13;4.40;;;33.80;54.10;;;;;;5044006;28;20031;-76
2023/06/25 11:13:12;;;;;;;6.78;4.10;;;33.90;54.90;;;;;;5034796;28;20083;-76
2023/06/25 11:15:40;;;;;;;7.23;5.30;;;33.90;54.10;;;;;;5057062;28;20027;-77
2023/06/25 11:18:10;;;;;;;6.18;3.70;;;33.80;50.80;;;;;;5047017;28;20314;-76
2023/06/25 11:20:38;;;;;;;5.95;4.32;;;33.90;51.20;;;;;;5043962;28;20177;-77
2023/06/25 11:23:04;;;;;;;6.15;4.05;;;33.90;51.10;;;;;;5056259;28;20029;-77
2023/06/25 11:25:31;;;;;;;10.23;4.85;;;34.20;53.40;;;;;;5053327;28;20035;-77
2023/06/25 11:28:09;;;;;;;9.60;5.10;;;34.30;50.20;;;;;;5047940;28;20032;-75
2023/06/25 11:30:35;;;;;;;7.18;5.03;;;34.30;49.60;;;;;;5057704;28;20028;-77
2023/06/25 11:33:13;;;;;;;6.80;4.60;;;34.30;48.90;;;;;;5057955;28;20052;-79
2023/06/25 11:35:41;;;;;;;4.93;3.47;;;34.50;50.40;;;;;;5052745;28;20064;-76
2023/06/25 11:38:06;;;;;;;6.78;4.78;;;34.50;50.20;;;;;;5050753;28;20065;-77
2023/06/25 11:40:36;;;;;;;5.95;3.78;;;34.60;50.90;;;;;;5057396;28;20041;-75
2023/06/25 11:43:06;;;;;;;8.73;4.22;;;34.60;49.00;;;;;;5038251;28;20208;-76
2023/06/25 11:45:43;;;;;;;5.93;4.03;;;34.70;48.00;;;;;;5062117;28;20020;-77
2023/06/25 11:48:13;;;;;;;5.75;3.90;;;34.80;48.20;;;;;;5054402;28;20017;-76
2023/06/25 11:50:40;;;;;;;7.05;4.63;;;;;;;;;;5056376;28;20037;-77
2023/06/25 11:53:06;;;;;;;6.45;3.47;;;;;;;;;;5039582;28;20600;-78
2023/06/25 11:55:32;;;;;;;6.60;4.35;;;;;;;;;;5058375;28;20032;-76
2023/06/25 11:57:58;;;;;;;7.68;4.57;;;;;;;;;;5052280;28;20029;-76
2023/06/25 12:00:25;;;;;;;5.45;3.50;;;;;;;;;;5050319;28;20029;-77
2023/06/25 12:02:52;;;;;;;8.07;4.75;;;;;;;;;;5055204;28;20040;-77
2023/06/25 12:05:18;;;;;;;5.55;3.83;;;;;;;;;;5064603;28;20037;-77
2023/06/25 12:07:44;;;;;;;6.18;3.75;;;;;;;;;;5045988;28;20082;-77
2023/06/25 12:10:11;;;;;;;6.93;3.83;;;;;;;;;;5060631;28;20020;-75
2023/06/25 12:12:37;;;;;;;7.28;4.40;;;;;;;;;;5059317;28;20025;-81
2023/06/25 12:15:03;;;;;;;5.57;4.00;;;;;;;;;;5062093;28;20029;-75
2023/06/25 12:17:29;;;;;;;6.13;3.80;;;;;;;;;;5044650;28;20029;-75
2023/06/25 12:19:55;;;;;;;7.70;4.85;;;;;;;;;;5057833;28;20071;-75
2023/06/25 12:22:21;;;;;;;6.57;4.95;;;;;;;;;;5042586;28;20432;-75
2023/06/25 12:24:47;;;;;;;7.68;4.13;;;;;;;;;;5060856;28;20028;-75
2023/06/25 12:27:14;;;;;;;5.95;4.32;;;;;;;;;;5057666;28;20083;-76
2023/06/25 12:29:40;;;;;;;6.88;4.72;;;;;;;;;;5061244;28;20040;-76
2023/06/25 12:32:06;;;;;;;7.43;4.25;;;;;;;;;;5062222;28;20536;-74
2023/06/25 12:34:32;;;;;;;6.50;4.78;;;;;;;;;;5061872;28;20063;-75
2023/06/25 12:36:58;;;;;;;7.43;5.35;;;;;;;;;;5063328;28;20107;-77
2023/06/25 12:39:24;;;;;;;7.00;4.63;;;;;;;;;;5069433;28;20059;-76
2023/06/25 12:41:50;;;;;;;6.60;4.53;;;;;;;;;;5054419;28;20036;-76
2023/06/25 12:44:17;;;;;;;5.93;4.32;;;;;;;;;;5036400;28;20025;-77
2023/06/25 12:46:43;;;;;;;5.78;4.05;;;;;;;;;;5057941;28;20027;-76
2023/06/25 12:49:09;;;;;;;7.15;4.53;;;;;;;;;;5055067;28;20024;-77
2023/06/25 12:51:35;;;;;;;8.60;4.50;;;;;;;;;;5060493;28;20058;-77
2023/06/25 12:54:02;;;;;;;6.43;3.97;;;;;;;;;;5063762;28;20051;-76
2023/06/25 12:56:29;;;;;;;6.43;4.30;;;;;;;;;;5070907;28;20397;-76
2023/06/25 12:58:55;;;;;;;7.43;4.22;;;;;;;;;;5069402;28;20029;-75
2023/06/25 13:01:21;;;;;;;9.48;4.63;;;;;;;;;;5066832;28;20032;-76
2023/06/25 13:03:49;;;;;;;7.82;4.22;;;;;;;;;;5076535;28;20102;-76
2023/06/25 13:06:15;;;;;;;6.85;4.45;;;;;;;;;;5060004;28;20059;-75
2023/06/25 13:08:41;;;;;;;6.57;4.28;;;;;;;;;;5040240;28;20025;-75
2023/06/25 13:11:09;;;;;;;5.38;3.85;;;;;;;;;;5063738;28;20471;-76
2023/06/25 13:13:36;;;;;;;6.63;4.35;;;;;;;;;;5054136;28;20037;-77
2023/06/25 13:16:02;;;;;;;6.00;4.13;;;;;;;;;;5059500;28;20037;-76
2023/06/25 13:18:28;;;;;;;6.72;4.55;;;;;;;;;;5061239;28;20024;-74
2023/06/25 13:20:56;;;;;;;6.30;4.07;;;;;;;;;;5070201;28;20054;-75
2023/06/25 13:23:22;;;;;;;9.13;4.97;;;;;;;;;;5048534;28;20055;-74
2023/06/25 13:25:48;;;;;;;5.95;4.10;;;;;;;;;;5080502;28;20029;-74
2023/06/25 13:28:15;;;;;;;6.95;3.88;;;;;;;;;;5059426;28;20025;-73
2023/06/25 13:30:41;;;;;;;5.97;4.30;;;;;;;;;;5053883;28;20036;-74
2023/06/25 13:33:07;;;;;;;6.82;4.20;;;;;;;;;;5048335;28;20102;-77
2023/06/25 13:35:33;;;;;;;6.82;4.70;;;;;;;;;;5036859;28;20029;-76
2023/06/25 13:37:59;;;;;;;7.68;4.82;;;;;;;;;;5038114;28;20053;-75
2023/06/25 13:40:25;;;;;;;6.00;4.70;;;;;;;;;;5042097;28;20045;-75
2023/06/25 13:42:51;;;;;;;6.70;4.35;;;;;;;;;;5038301;28;20029;-76
2023/06/25 13:45:17;;;;;;;5.55;3.72;;;;;;;;;;5047762;28;20267;-77
2023/06/25 13:47:43;;;;;;;7.90;4.68;;;;;;;;;;5045493;28;20036;-76
2023/06/25 13:50:09;;;;;;;7.40;4.05;;;;;;;;;;5048181;28;20033;-76
2023/06/25 13:52:36;;;;;;;5.82;4.38;;;;;;;;;;5048189;28;20104;-77
2023/06/25 13:55:02;;;;;;;6.10;4.50;;;;;;;;;;5032125;28;20021;-77
2023/06/25 13:57:28;;;;;;;6.63;4.65;;;;;;;;;;5052296;28;20025;-77
2023/06/25 13:59:54;;;;;;;5.18;3.80;;;;;;;;;;5027815;28;20553;-77
2023/06/25 14:02:20;;;;;;;7.68;4.53;;;;;;;;;;5036985;28;20543;-77
2023/06/25 14:04:48;;;;;;;6.22;4.43;;;;;;;;;;5043346;28;20040;-76
2023/06/25 14:07:14;;;;;;;6.85;3.70;;;;;;;;;;5043526;28;20033;-75